sensor_id;sensor_type;location;lat;lon;timestamp;pressure;altitude;pressure_sealevel;temperature;humidity
48630;BME280;34426;52.180;4.462;2022-08-30T00:00:49;150174.56;;;16.89;100.00
48630;BME280;34426;52.180;4.462;2022-08-30T00:03:15;150167.06;;;16.86;100.00
48630;BME280;34426;52.180;4.462;2022-08-30T00:05:40;150169.59;;;16.87;100.00
48630;BME280;34426;52.180;4.462;2022-08-30T00:08:07;150178.34;;;16.91;100.00
48630;BME280;34426;52.180;4.462;2022-08-30T00:10:33;150184.59;;;16.93;100.00
48630;BME280;34426;52.180;4.462;2022-08-30T00:12:59;150194.63;;;16.97;100.00
48630;BME280;34426;52.180;4.462;2022-08-30T00:15:26;150197.09;;;16.98;100.00
48630;BME280;34426;52.180;4.462;2022-08-30T00:17:51;150187.09;;;16.94;100.00
48630;BME280;34426;52.180;4.462;2022-08-30T00:20:22;150182.09;;;16.92;100.00
48630;BME280;34426;52.180;4.462;2022-08-30T00:22:48;150187.09;;;16.94;100.00
48630;BME280;34426;52.180;4.462;2022-08-30T00:25:14;150180.81;;;16.92;100.00
48630;BME280;34426;52.180;4.462;2022-08-30T00:27:39;150174.56;;;16.89;100.00
48630;BME280;34426;52.180;4.462;2022-08-30T00:30:07;150157.00;;;16.82;100.00
48630;BME280;34426;52.180;4.462;2022-08-30T00:32:34;150151.97;;;16.80;100.00
48630;BME280;34426;52.180;4.462;2022-08-30T00:35:00;150146.97;;;16.78;100.00
48630;BME280;34426;52.180;4.462;2022-08-30T00:37:25;150148.25;;;16.78;100.00
48630;BME280;34426;52.180;4.462;2022-08-30T00:39:52;150136.97;;;16.74;100.00
48630;BME280;34426;52.180;4.462;2022-08-30T00:42:19;150133.19;;;16.72;100.00
48630;BME280;34426;52.180;4.462;2022-08-30T00:44:46;150134.44;;;16.73;100.00
48630;BME280;34426;52.180;4.462;2022-08-30T00:47:12;150134.44;;;16.73;100.00
48630;BME280;34426;52.180;4.462;2022-08-30T00:49:41;150130.69;;;16.71;100.00
48630;BME280;34426;52.180;4.462;2022-08-30T00:52:08;150118.16;;;16.66;100.00
48630;BME280;34426;52.180;4.462;2022-08-30T00:54:35;150115.69;;;16.65;100.00
48630;BME280;34426;52.180;4.462;2022-08-30T00:57:02;150130.69;;;16.71;100.00
48630;BME280;34426;52.180;4.462;2022-08-30T00:59:28;150133.19;;;16.72;100.00
48630;BME280;34426;52.180;4.462;2022-08-30T01:01:54;150124.44;;;16.68;100.00
48630;BME280;34426;52.180;4.462;2022-08-30T01:04:21;150133.19;;;16.72;100.00
48630;BME280;34426;52.180;4.462;2022-08-30T01:06:49;150129.44;;;16.70;100.00
48630;BME280;34426;52.180;4.462;2022-08-30T01:09:15;150114.44;;;16.64;100.00
48630;BME280;34426;52.180;4.462;2022-08-30T01:11:42;150096.88;;;16.57;100.00
48630;BME280;34426;52.180;4.462;2022-08-30T01:14:09;150090.66;;;16.55;100.00
48630;BME280;34426;52.180;4.462;2022-08-30T01:16:37;150090.66;;;16.55;100.00
48630;BME280;34426;52.180;4.462;2022-08-30T01:19:05;150079.34;;;16.50;100.00
48630;BME280;34426;52.180;4.462;2022-08-30T01:21:37;150056.84;;;16.41;100.00
48630;BME280;34426;52.180;4.462;2022-08-30T01:24:06;150050.56;;;16.38;100.00
48630;BME280;34426;52.180;4.462;2022-08-30T01:26:33;150050.56;;;16.38;100.00
48630;BME280;34426;52.180;4.462;2022-08-30T01:29:03;150051.84;;;16.39;100.00
48630;BME280;34426;52.180;4.462;2022-08-30T01:31:29;150034.28;;;16.31;100.00
48630;BME280;34426;52.180;4.462;2022-08-30T01:33:54;150046.78;;;16.37;100.00
48630;BME280;34426;52.180;4.462;2022-08-30T01:36:20;150035.56;;;16.32;100.00
48630;BME280;34426;52.180;4.462;2022-08-30T01:38:48;150041.81;;;16.34;100.00
48630;BME280;34426;52.180;4.462;2022-08-30T01:41:17;150030.56;;;16.30;100.00
48630;BME280;34426;52.180;4.462;2022-08-30T01:43:43;150018.03;;;16.25;100.00
48630;BME280;34426;52.180;4.462;2022-08-30T01:46:09;149996.78;;;16.16;100.00
48630;BME280;34426;52.180;4.462;2022-08-30T01:48:35;149996.78;;;16.16;100.00
48630;BME280;34426;52.180;4.462;2022-08-30T01:51:01;150006.75;;;16.20;100.00
48630;BME280;34426;52.180;4.462;2022-08-30T01:53:26;150006.75;;;16.20;100.00
48630;BME280;34426;52.180;4.462;2022-08-30T01:55:52;149987.97;;;16.12;100.00
48630;BME280;34426;52.180;4.462;2022-08-30T01:58:18;149975.44;;;16.07;100.00
48630;BME280;34426;52.180;4.462;2022-08-30T02:00:44;149970.44;;;16.05;100.00
48630;BME280;34426;52.180;4.462;2022-08-30T02:03:09;149955.47;;;15.99;100.00
48630;BME280;34426;52.180;4.462;2022-08-30T02:05:35;149940.44;;;15.93;100.00
48630;BME280;34426;52.180;4.462;2022-08-30T02:08:00;149932.91;;;15.90;100.00
48630;BME280;34426;52.180;4.462;2022-08-30T02:10:26;149931.66;;;15.89;100.00
48630;BME280;34426;52.180;4.462;2022-08-30T02:12:52;149921.69;;;15.85;100.00
48630;BME280;34426;52.180;4.462;2022-08-30T02:15:19;149914.16;;;15.82;100.00
48630;BME280;34426;52.180;4.462;2022-08-30T02:17:44;149909.16;;;15.80;100.00
48630;BME280;34426;52.180;4.462;2022-08-30T02:20:10;149914.16;;;15.82;100.00
48630;BME280;34426;52.180;4.462;2022-08-30T02:22:36;149894.06;;;15.74;100.00
48630;BME280;34426;52.180;4.462;2022-08-30T02:25:02;149887.84;;;15.71;100.00
48630;BME280;34426;52.180;4.462;2022-08-30T02:27:27;149879.09;;;15.68;100.00
48630;BME280;34426;52.180;4.462;2022-08-30T02:29:53;149879.09;;;15.68;100.00
48630;BME280;34426;52.180;4.462;2022-08-30T02:32:20;149879.09;;;15.68;100.00
48630;BME280;34426;52.180;4.462;2022-08-30T02:34:45;149870.28;;;15.64;100.00
48630;BME280;34426;52.180;4.462;2022-08-30T02:37:11;149876.56;;;15.67;100.00
48630;BME280;34426;52.180;4.462;2022-08-30T02:39:36;149890.31;;;15.72;100.00
48630;BME280;34426;52.180;4.462;2022-08-30T02:42:02;149881.56;;;15.69;100.00
48630;BME280;34426;52.180;4.462;2022-08-30T02:44:27;149884.09;;;15.70;100.00
48630;BME280;34426;52.180;4.462;2022-08-30T02:46:53;149899.13;;;15.76;100.00
48630;BME280;34426;52.180;4.462;2022-08-30T02:49:20;149877.81;;;15.67;100.00
48630;BME280;34426;52.180;4.462;2022-08-30T02:51:45;149880.31;;;15.68;100.00
48630;BME280;34426;52.180;4.462;2022-08-30T02:54:10;149884.09;;;15.70;100.00
48630;BME280;34426;52.180;4.462;2022-08-30T02:56:36;149869.06;;;15.64;100.00
48630;BME280;34426;52.180;4.462;2022-08-30T02:59:01;149865.28;;;15.62;100.00
48630;BME280;34426;52.180;4.462;2022-08-30T03:01:27;149850.31;;;15.56;100.00
48630;BME280;34426;52.180;4.462;2022-08-30T03:03:52;149840.25;;;15.52;100.00
48630;BME280;34426;52.180;4.462;2022-08-30T03:06:19;149832.78;;;15.49;100.00
48630;BME280;34426;52.180;4.462;2022-08-30T03:08:45;149829.03;;;15.47;100.00
48630;BME280;34426;52.180;4.462;2022-08-30T03:11:10;149834.03;;;15.49;100.00
48630;BME280;34426;52.180;4.462;2022-08-30T03:13:35;149825.28;;;15.46;100.00
48630;BME280;34426;52.180;4.462;2022-08-30T03:16:01;149822.75;;;15.45;100.00
48630;BME280;34426;52.180;4.462;2022-08-30T03:18:27;149801.50;;;15.36;100.00
48630;BME280;34426;52.180;4.462;2022-08-30T03:20:52;149796.50;;;15.34;100.00
48630;BME280;34426;52.180;4.462;2022-08-30T03:23:19;149788.97;;;15.31;100.00
48630;BME280;34426;52.180;4.462;2022-08-30T03:25:44;149787.75;;;15.30;100.00
48630;BME280;34426;52.180;4.462;2022-08-30T03:28:11;149783.97;;;15.29;100.00
48630;BME280;34426;52.180;4.462;2022-08-30T03:30:36;149786.50;;;15.30;100.00
48630;BME280;34426;52.180;4.462;2022-08-30T03:33:02;149791.50;;;15.32;100.00
48630;BME280;34426;52.180;4.462;2022-08-30T03:35:28;149796.50;;;15.34;100.00
48630;BME280;34426;52.180;4.462;2022-08-30T03:37:53;149786.50;;;15.30;100.00
48630;BME280;34426;52.180;4.462;2022-08-30T03:40:21;149780.22;;;15.27;100.00
48630;BME280;34426;52.180;4.462;2022-08-30T03:42:47;149780.22;;;15.27;100.00
48630;BME280;34426;52.180;4.462;2022-08-30T03:45:13;149786.50;;;15.30;100.00
48630;BME280;34426;52.180;4.462;2022-08-30T03:47:39;149774.00;;;15.25;100.00
48630;BME280;34426;52.180;4.462;2022-08-30T03:50:05;149774.00;;;15.25;100.00
48630;BME280;34426;52.180;4.462;2022-08-30T03:52:31;149763.97;;;15.20;100.00
48630;BME280;34426;52.180;4.462;2022-08-30T03:54:57;149751.44;;;15.15;100.00
48630;BME280;34426;52.180;4.462;2022-08-30T03:57:24;149746.44;;;15.13;100.00
48630;BME280;34426;52.180;4.462;2022-08-30T03:59:49;149736.47;;;15.09;100.00
48630;BME280;34426;52.180;4.462;2022-08-30T04:02:15;149733.94;;;15.08;100.00
48630;BME280;34426;52.180;4.462;2022-08-30T04:04:40;149727.72;;;15.06;100.00
48630;BME280;34426;52.180;4.462;2022-08-30T04:07:06;149727.72;;;15.06;100.00
48630;BME280;34426;52.180;4.462;2022-08-30T04:09:31;149733.94;;;15.08;100.00
48630;BME280;34426;52.180;4.462;2022-08-30T04:11:57;149721.44;;;15.03;100.00
48630;BME280;34426;52.180;4.462;2022-08-30T04:14:23;149713.94;;;15.00;100.00
48630;BME280;34426;52.180;4.462;2022-08-30T04:16:49;149708.94;;;14.98;100.00
48630;BME280;34426;52.180;4.462;2022-08-30T04:19:14;149695.19;;;14.92;100.00
48630;BME280;34426;52.180;4.462;2022-08-30T04:21:40;149698.94;;;14.94;100.00
48630;BME280;34426;52.180;4.462;2022-08-30T04:24:05;149688.91;;;14.90;100.00
48630;BME280;34426;52.180;4.462;2022-08-30T04:26:31;149681.38;;;14.87;100.00
48630;BME280;34426;52.180;4.462;2022-08-30T04:28:57;149682.69;;;14.87;100.00
48630;BME280;34426;52.180;4.462;2022-08-30T04:31:25;149678.91;;;14.86;100.00
48630;BME280;34426;52.180;4.462;2022-08-30T04:33:50;149677.69;;;14.85;100.00
48630;BME280;34426;52.180;4.462;2022-08-30T04:36:16;149667.66;;;14.81;100.00
48630;BME280;34426;52.180;4.462;2022-08-30T04:38:41;149670.16;;;14.82;100.00
48630;BME280;34426;52.180;4.462;2022-08-30T04:41:11;149672.63;;;14.83;100.00
48630;BME280;34426;52.180;4.462;2022-08-30T04:43:37;149661.41;;;14.78;100.00
48630;BME280;34426;52.180;4.462;2022-08-30T04:46:05;149667.66;;;14.81;100.00
48630;BME280;34426;52.180;4.462;2022-08-30T04:48:32;149656.44;;;14.76;100.00
48630;BME280;34426;52.180;4.462;2022-08-30T04:50:57;149673.94;;;14.83;100.00
48630;BME280;34426;52.180;4.462;2022-08-30T04:53:23;149661.41;;;14.78;100.00
48630;BME280;34426;52.180;4.462;2022-08-30T04:55:48;149638.88;;;14.69;100.00
48630;BME280;34426;52.180;4.462;2022-08-30T04:58:13;149648.91;;;14.73;100.00
48630;BME280;34426;52.180;4.462;2022-08-30T05:00:39;149651.38;;;14.74;100.00
48630;BME280;34426;52.180;4.462;2022-08-30T05:03:07;149652.66;;;14.75;100.00
48630;BME280;34426;52.180;4.462;2022-08-30T05:05:34;149666.41;;;14.80;100.00
48630;BME280;34426;52.180;4.462;2022-08-30T05:07:59;149663.88;;;14.79;100.00
48630;BME280;34426;52.180;4.462;2022-08-30T05:10:25;149666.41;;;14.80;100.00
48630;BME280;34426;52.180;4.462;2022-08-30T05:12:51;149678.91;;;14.86;100.00
48630;BME280;34426;52.180;4.462;2022-08-30T05:15:16;149686.44;;;14.89;100.00
48630;BME280;34426;52.180;4.462;2022-08-30T05:17:41;149692.66;;;14.91;100.00
48630;BME280;34426;52.180;4.462;2022-08-30T05:20:09;149703.94;;;14.96;100.00
48630;BME280;34426;52.180;4.462;2022-08-30T05:22:37;149698.94;;;14.94;100.00
48630;BME280;34426;52.180;4.462;2022-08-30T05:25:04;149698.94;;;14.94;100.00
48630;BME280;34426;52.180;4.462;2022-08-30T05:27:30;149703.94;;;14.96;100.00
48630;BME280;34426;52.180;4.462;2022-08-30T05:29:55;149705.16;;;14.96;100.00
48630;BME280;34426;52.180;4.462;2022-08-30T05:32:21;149712.69;;;14.99;100.00
48630;BME280;34426;52.180;4.462;2022-08-30T05:34:47;149726.44;;;15.05;100.00
48630;BME280;34426;52.180;4.462;2022-08-30T05:37:12;149737.69;;;15.10;100.00
48630;BME280;34426;52.180;4.462;2022-08-30T05:39:39;149746.44;;;15.13;100.00
48630;BME280;34426;52.180;4.462;2022-08-30T05:42:05;149755.22;;;15.17;100.00
48630;BME280;34426;52.180;4.462;2022-08-30T05:44:30;149771.47;;;15.24;100.00
48630;BME280;34426;52.180;4.462;2022-08-30T05:46:56;149786.50;;;15.30;100.00
48630;BME280;34426;52.180;4.462;2022-08-30T05:49:21;149792.75;;;15.32;100.00
48630;BME280;34426;52.180;4.462;2022-08-30T05:51:47;149800.25;;;15.35;100.00
48630;BME280;34426;52.180;4.462;2022-08-30T05:54:14;149800.25;;;15.35;100.00
48630;BME280;34426;52.180;4.462;2022-08-30T05:56:43;149810.25;;;15.39;100.00
48630;BME280;34426;52.180;4.462;2022-08-30T05:59:09;149811.47;;;15.40;100.00
48630;BME280;34426;52.180;4.462;2022-08-30T06:01:37;149824.00;;;15.45;100.00
48630;BME280;34426;52.180;4.462;2022-08-30T06:04:04;149836.50;;;15.50;100.00
48630;BME280;34426;52.180;4.462;2022-08-30T06:06:32;149846.53;;;15.54;100.00
48630;BME280;34426;52.180;4.462;2022-08-30T06:08:58;149856.53;;;15.58;100.00
48630;BME280;34426;52.180;4.462;2022-08-30T06:11:25;149864.06;;;15.62;100.00
48630;BME280;34426;52.180;4.462;2022-08-30T06:13:53;149871.56;;;15.65;100.00
48630;BME280;34426;52.180;4.462;2022-08-30T06:16:21;149881.56;;;15.69;100.00
48630;BME280;34426;52.180;4.462;2022-08-30T06:18:47;149891.59;;;15.73;100.00
48630;BME280;34426;52.180;4.462;2022-08-30T06:21:15;149915.41;;;15.83;100.00
48630;BME280;34426;52.180;4.462;2022-08-30T06:23:42;149920.41;;;15.85;100.00
48630;BME280;34426;52.180;4.462;2022-08-30T06:26:08;149937.94;;;15.92;100.00
48630;BME280;34426;52.180;4.462;2022-08-30T06:28:33;149950.47;;;15.97;100.00
48630;BME280;34426;52.180;4.462;2022-08-30T06:31:00;149966.69;;;16.04;100.00
48630;BME280;34426;52.180;4.462;2022-08-30T06:33:29;149985.50;;;16.11;100.00
48630;BME280;34426;52.180;4.462;2022-08-30T06:36:01;150005.53;;;16.20;100.00
48630;BME280;34426;52.180;4.462;2022-08-30T06:38:26;150024.28;;;16.27;100.00
48630;BME280;34426;52.180;4.462;2022-08-30T06:40:51;150034.28;;;16.31;100.00
48630;BME280;34426;52.180;4.462;2022-08-30T06:43:17;150053.09;;;16.39;100.00
48630;BME280;34426;52.180;4.462;2022-08-30T06:45:42;150065.59;;;16.44;100.00
48630;BME280;34426;52.180;4.462;2022-08-30T06:48:09;150080.59;;;16.50;100.00
48630;BME280;34426;52.180;4.462;2022-08-30T06:50:35;150089.41;;;16.54;100.00
48630;BME280;34426;52.180;4.462;2022-08-30T06:53:00;150104.41;;;16.60;100.00
48630;BME280;34426;52.180;4.462;2022-08-30T06:55:26;150118.16;;;16.66;100.00
48630;BME280;34426;52.180;4.462;2022-08-30T06:57:51;150133.19;;;16.72;100.00
48630;BME280;34426;52.180;4.462;2022-08-30T07:00:17;150155.72;;;16.81;100.00
48630;BME280;34426;52.180;4.462;2022-08-30T07:02:42;150167.06;;;16.86;100.00
48630;BME280;34426;52.180;4.462;2022-08-30T07:05:10;150183.34;;;16.93;100.00
48630;BME280;34426;52.180;4.462;2022-08-30T07:07:36;150194.63;;;16.97;100.00
48630;BME280;34426;52.180;4.462;2022-08-30T07:10:01;150208.38;;;17.03;100.00
48630;BME280;34426;52.180;4.462;2022-08-30T07:12:27;150218.38;;;17.07;100.00
48630;BME280;34426;52.180;4.462;2022-08-30T07:14:52;150234.69;;;17.14;100.00
48630;BME280;34426;52.180;4.462;2022-08-30T07:17:18;150238.44;;;17.15;100.00
48630;BME280;34426;52.180;4.462;2022-08-30T07:19:44;150252.22;;;17.21;100.00
48630;BME280;34426;52.180;4.462;2022-08-30T07:22:11;150272.25;;;17.29;100.00
48630;BME280;34426;52.180;4.462;2022-08-30T07:24:37;150274.78;;;17.30;99.32
48630;BME280;34426;52.180;4.462;2022-08-30T07:27:02;150303.59;;;17.42;100.00
48630;BME280;34426;52.180;4.462;2022-08-30T07:29:28;150313.59;;;17.46;98.58
48630;BME280;34426;52.180;4.462;2022-08-30T07:31:53;150329.88;;;17.53;99.64
48630;BME280;34426;52.180;4.462;2022-08-30T07:34:18;150357.44;;;17.64;99.62
48630;BME280;34426;52.180;4.462;2022-08-30T07:36:44;150362.47;;;17.66;97.54
48630;BME280;34426;52.180;4.462;2022-08-30T07:39:11;150391.25;;;17.78;95.37
48630;BME280;34426;52.180;4.462;2022-08-30T07:41:36;150405.06;;;17.83;93.36
48630;BME280;34426;52.180;4.462;2022-08-30T07:44:02;150417.63;;;17.89;91.34
48630;BME280;34426;52.180;4.462;2022-08-30T07:46:28;150432.66;;;17.95;92.17
48630;BME280;34426;52.180;4.462;2022-08-30T07:48:54;150435.19;;;17.96;89.60
48630;BME280;34426;52.180;4.462;2022-08-30T07:51:23;150445.19;;;18.00;87.35
48630;BME280;34426;52.180;4.462;2022-08-30T07:53:48;150460.25;;;18.06;87.05
48630;BME280;34426;52.180;4.462;2022-08-30T07:56:15;150475.25;;;18.12;87.38
48630;BME280;34426;52.180;4.462;2022-08-30T07:58:41;150490.31;;;18.18;87.55
48630;BME280;34426;52.180;4.462;2022-08-30T08:01:08;150501.59;;;18.23;86.33
48630;BME280;34426;52.180;4.462;2022-08-30T08:03:35;150514.13;;;18.28;85.68
48630;BME280;34426;52.180;4.462;2022-08-30T08:06:02;150535.44;;;18.37;85.52
48630;BME280;34426;52.180;4.462;2022-08-30T08:08:28;150540.44;;;18.39;83.05
48630;BME280;34426;52.180;4.462;2022-08-30T08:10:53;150551.69;;;18.44;82.18
48630;BME280;34426;52.180;4.462;2022-08-30T08:13:20;150557.97;;;18.46;79.38
48630;BME280;34426;52.180;4.462;2022-08-30T08:15:46;150559.22;;;18.47;78.62
48630;BME280;34426;52.180;4.462;2022-08-30T08:18:11;150576.75;;;18.54;78.30
48630;BME280;34426;52.180;4.462;2022-08-30T08:20:37;150584.28;;;18.57;77.83
48630;BME280;34426;52.180;4.462;2022-08-30T08:23:03;150603.13;;;18.65;78.32
48630;BME280;34426;52.180;4.462;2022-08-30T08:25:28;150620.66;;;18.72;77.04
48630;BME280;34426;52.180;4.462;2022-08-30T08:27:54;150616.91;;;18.70;76.26
48630;BME280;34426;52.180;4.462;2022-08-30T08:30:21;150631.97;;;18.76;75.13
48630;BME280;34426;52.180;4.462;2022-08-30T08:32:47;150638.19;;;18.79;74.35
48630;BME280;34426;52.180;4.462;2022-08-30T08:35:15;150643.22;;;18.81;73.68
48630;BME280;34426;52.180;4.462;2022-08-30T08:37:41;150658.31;;;18.87;73.84
48630;BME280;34426;52.180;4.462;2022-08-30T08:40:12;150660.81;;;18.88;74.41
48630;BME280;34426;52.180;4.462;2022-08-30T08:42:47;150673.34;;;18.93;72.63
48630;BME280;34426;52.180;4.462;2022-08-30T08:45:18;150698.41;;;19.04;73.26
48630;BME280;34426;52.180;4.462;2022-08-30T08:47:53;150716.00;;;19.11;71.46
48630;BME280;34426;52.180;4.462;2022-08-30T08:50:22;150721.00;;;19.13;71.55
48630;BME280;34426;52.180;4.462;2022-08-30T08:52:50;150743.56;;;19.22;70.91
48630;BME280;34426;52.180;4.462;2022-08-30T08:55:19;150746.09;;;19.23;72.46
48630;BME280;34426;52.180;4.462;2022-08-30T08:57:46;150778.66;;;19.37;70.67
48630;BME280;34426;52.180;4.462;2022-08-30T09:00:12;150773.66;;;19.35;70.38
48630;BME280;34426;52.180;4.462;2022-08-30T09:02:40;150774.94;;;19.35;69.92
48630;BME280;34426;52.180;4.462;2022-08-30T09:05:09;150776.19;;;19.36;70.06
48630;BME280;34426;52.180;4.462;2022-08-30T09:07:38;150797.50;;;19.44;67.94
48630;BME280;34426;52.180;4.462;2022-08-30T09:10:05;150822.59;;;19.55;68.68
48630;BME280;34426;52.180;4.462;2022-08-30T09:12:31;150845.16;;;19.64;69.99
48630;BME280;34426;52.180;4.462;2022-08-30T09:15:03;150861.47;;;19.70;68.80
48630;BME280;34426;52.180;4.462;2022-08-30T09:17:48;150881.59;;;19.79;67.37
48630;BME280;34426;52.180;4.462;2022-08-30T09:20:23;150897.91;;;19.85;67.61
48630;BME280;34426;52.180;4.462;2022-08-30T09:22:50;150911.69;;;19.91;67.65
48630;BME280;34426;52.180;4.462;2022-08-30T09:25:20;150916.69;;;19.93;66.21
48630;BME280;34426;52.180;4.462;2022-08-30T09:27:48;150929.22;;;19.98;67.45
48630;BME280;34426;52.180;4.462;2022-08-30T09:30:17;150921.69;;;19.95;66.14
48630;BME280;34426;52.180;4.462;2022-08-30T09:32:49;150973.19;;;20.16;67.00
48630;BME280;34426;52.180;4.462;2022-08-30T09:35:19;151000.75;;;20.27;64.51
48630;BME280;34426;52.180;4.462;2022-08-30T09:37:50;151027.09;;;20.38;64.70
48630;BME280;34426;52.180;4.462;2022-08-30T09:40:23;151055.97;;;20.50;63.23
48630;BME280;34426;52.180;4.462;2022-08-30T09:43:02;151077.28;;;20.59;62.27
48630;BME280;34426;52.180;4.462;2022-08-30T09:45:31;151082.28;;;20.61;61.30
48630;BME280;34426;52.180;4.462;2022-08-30T09:47:56;151099.97;;;20.68;61.35
48630;BME280;34426;52.180;4.462;2022-08-30T09:50:26;151120.00;;;20.76;61.08
48630;BME280;34426;52.180;4.462;2022-08-30T09:53:03;151145.09;;;20.87;61.38
48630;BME280;34426;52.180;4.462;2022-08-30T09:55:42;151155.19;;;20.91;60.71
48630;BME280;34426;52.180;4.462;2022-08-30T09:58:18;151179.00;;;21.00;59.27
48630;BME280;34426;52.180;4.462;2022-08-30T10:00:50;151212.88;;;21.14;59.57
48630;BME280;34426;52.180;4.462;2022-08-30T10:03:22;151248.06;;;21.29;58.85
48630;BME280;34426;52.180;4.462;2022-08-30T10:05:57;151259.31;;;21.33;59.07
48630;BME280;34426;52.180;4.462;2022-08-30T10:08:34;151274.41;;;21.39;56.17
48630;BME280;34426;52.180;4.462;2022-08-30T10:11:04;151288.22;;;21.45;56.62
48630;BME280;34426;52.180;4.462;2022-08-30T10:13:41;151325.94;;;21.61;56.25
48630;BME280;34426;52.180;4.462;2022-08-30T10:16:18;151351.06;;;21.71;55.65
48630;BME280;34426;52.180;4.462;2022-08-30T10:18:52;151398.81;;;21.90;55.81
48630;BME280;34426;52.180;4.462;2022-08-30T10:21:27;151454.06;;;22.13;56.04
48630;BME280;34426;52.180;4.462;2022-08-30T10:23:59;151475.41;;;22.22;57.96
48630;BME280;34426;52.180;4.462;2022-08-30T10:26:30;151549.53;;;22.52;56.41
48630;BME280;34426;52.180;4.462;2022-08-30T10:29:00;151510.63;;;22.36;56.46
48630;BME280;34426;52.180;4.462;2022-08-30T10:31:32;151521.94;;;22.41;56.45
48630;BME280;34426;52.180;4.462;2022-08-30T10:34:05;151520.66;;;22.40;55.83
48630;BME280;34426;52.180;4.462;2022-08-30T10:36:36;151544.53;;;22.50;55.44
48630;BME280;34426;52.180;4.462;2022-08-30T10:39:06;151544.53;;;22.50;55.78
48630;BME280;34426;52.180;4.462;2022-08-30T10:41:37;151572.19;;;22.61;53.78
48630;BME280;34426;52.180;4.462;2022-08-30T10:44:06;151619.91;;;22.81;52.88
48630;BME280;34426;52.180;4.462;2022-08-30T10:46:39;151640.03;;;22.89;52.02
48630;BME280;34426;52.180;4.462;2022-08-30T10:49:16;151614.91;;;22.79;51.38
48630;BME280;34426;52.180;4.462;2022-08-30T10:51:48;151598.56;;;22.72;53.89
48630;BME280;34426;52.180;4.462;2022-08-30T10:54:18;151656.38;;;22.96;53.23
48630;BME280;34426;52.180;4.462;2022-08-30T10:56:48;151676.44;;;23.04;51.57
48630;BME280;34426;52.180;4.462;2022-08-30T10:59:15;151714.19;;;23.19;50.37
48630;BME280;34426;52.180;4.462;2022-08-30T11:02:02;151685.28;;;23.08;49.89
48630;BME280;34426;52.180;4.462;2022-08-30T11:07:36;151662.63;;;22.98;50.68
48630;BME280;34426;52.180;4.462;2022-08-30T11:10:21;151682.81;;;23.06;51.88
48630;BME280;34426;52.180;4.462;2022-08-30T11:12:55;151702.91;;;23.15;51.00
48630;BME280;34426;52.180;4.462;2022-08-30T11:15:25;151717.97;;;23.21;50.68
48630;BME280;34426;52.180;4.462;2022-08-30T11:17:57;151756.91;;;23.37;49.96
48630;BME280;34426;52.180;4.462;2022-08-30T11:20:31;151749.41;;;23.34;50.27
48630;BME280;34426;52.180;4.462;2022-08-30T11:23:20;151744.34;;;23.32;50.31
48630;BME280;34426;52.180;4.462;2022-08-30T11:25:50;151741.88;;;23.31;50.87
48630;BME280;34426;52.180;4.462;2022-08-30T11:31:29;151765.75;;;23.40;49.53
48630;BME280;34426;52.180;4.462;2022-08-30T11:33:55;151707.94;;;23.17;50.63
48630;BME280;34426;52.180;4.462;2022-08-30T11:42:33;151805.97;;;23.57;49.84
48630;BME280;34426;52.180;4.462;2022-08-30T11:48:03;151828.56;;;23.66;48.32
48630;BME280;34426;52.180;4.462;2022-08-30T11:50:32;151824.84;;;23.65;47.65
48630;BME280;34426;52.180;4.462;2022-08-30T11:53:03;151789.63;;;23.50;47.16
48630;BME280;34426;52.180;4.462;2022-08-30T11:55:40;151785.84;;;23.49;46.93
48630;BME280;34426;52.180;4.462;2022-08-30T11:58:18;151824.84;;;23.65;47.36
48630;BME280;34426;52.180;4.462;2022-08-30T12:03:57;151956.88;;;24.18;46.18
48630;BME280;34426;52.180;4.462;2022-08-30T12:06:45;151914.13;;;24.01;45.86
48630;BME280;34426;52.180;4.462;2022-08-30T12:12:43;151954.34;;;24.17;45.98
48630;BME280;34426;52.180;4.462;2022-08-30T12:18:13;151999.63;;;24.36;47.18
48630;BME280;34426;52.180;4.462;2022-08-30T12:20:43;152003.41;;;24.37;46.04
48630;BME280;34426;52.180;4.462;2022-08-30T12:23:17;151971.94;;;24.25;47.42
48630;BME280;34426;52.180;4.462;2022-08-30T12:25:43;152016.00;;;24.43;46.08
48630;BME280;34426;52.180;4.462;2022-08-30T12:28:15;152044.97;;;24.54;47.07
48630;BME280;34426;52.180;4.462;2022-08-30T12:30:43;151997.09;;;24.35;46.32
48630;BME280;34426;52.180;4.462;2022-08-30T12:33:10;151990.84;;;24.32;46.18
48630;BME280;34426;52.180;4.462;2022-08-30T12:35:38;152019.75;;;24.44;46.39
48630;BME280;34426;52.180;4.462;2022-08-30T12:38:12;152008.44;;;24.40;45.97
48630;BME280;34426;52.180;4.462;2022-08-30T12:40:48;151982.03;;;24.29;45.39
48630;BME280;34426;52.180;4.462;2022-08-30T12:43:22;151949.34;;;24.15;46.38
48630;BME280;34426;52.180;4.462;2022-08-30T12:45:49;152097.78;;;24.76;46.21
48630;BME280;34426;52.180;4.462;2022-08-30T12:48:16;152063.81;;;24.62;45.02
48630;BME280;34426;52.180;4.462;2022-08-30T12:50:45;152075.16;;;24.67;44.74
48630;BME280;34426;52.180;4.462;2022-08-30T12:53:12;152224.88;;;25.28;44.15
48630;BME280;34426;52.180;4.462;2022-08-30T12:55:49;152250.03;;;25.38;44.01
48630;BME280;34426;52.180;4.462;2022-08-30T12:58:16;152289.03;;;25.54;42.73
48630;BME280;34426;52.180;4.462;2022-08-30T13:00:43;152331.84;;;25.72;42.55
48630;BME280;34426;52.180;4.462;2022-08-30T13:03:28;152309.19;;;25.62;41.69
48630;BME280;34426;52.180;4.462;2022-08-30T13:05:55;152349.47;;;25.79;42.88
48630;BME280;34426;52.180;4.462;2022-08-30T13:08:23;152305.38;;;25.61;44.19
48630;BME280;34426;52.180;4.462;2022-08-30T13:10:52;152404.88;;;26.01;42.70